sensor_id;sensor_type;location;lat;lon;timestamp;P1;durP1;ratioP1;P2;durP2;ratioP2
22634;SDS011;11484;50.858;4.384;2022-07-23T00:01:31;18.60;;;13.18;;
22634;SDS011;11484;50.858;4.384;2022-07-23T00:03:57;15.63;;;12.52;;
22634;SDS011;11484;50.858;4.384;2022-07-23T00:06:23;18.25;;;12.68;;
22634;SDS011;11484;50.858;4.384;2022-07-23T00:08:50;16.05;;;13.20;;
22634;SDS011;11484;50.858;4.384;2022-07-23T00:11:16;16.83;;;12.68;;
22634;SDS011;11484;50.858;4.384;2022-07-23T00:13:42;22.65;;;13.43;;
22634;SDS011;11484;50.858;4.384;2022-07-23T00:16:07;17.88;;;13.23;;
22634;SDS011;11484;50.858;4.384;2022-07-23T00:18:33;14.98;;;13.15;;
22634;SDS011;11484;50.858;4.384;2022-07-23T00:20:59;18.38;;;14.05;;
22634;SDS011;11484;50.858;4.384;2022-07-23T00:23:25;16.80;;;13.60;;
22634;SDS011;11484;50.858;4.384;2022-07-23T00:25:51;19.75;;;14.07;;
22634;SDS011;11484;50.858;4.384;2022-07-23T00:28:17;19.23;;;14.02;;
22634;SDS011;11484;50.858;4.384;2022-07-23T00:30:43;17.13;;;13.98;;
22634;SDS011;11484;50.858;4.384;2022-07-23T00:33:09;17.00;;;14.77;;
22634;SDS011;11484;50.858;4.384;2022-07-23T00:35:36;18.75;;;14.20;;
22634;SDS011;11484;50.858;4.384;2022-07-23T00:38:05;18.87;;;14.50;;
22634;SDS011;11484;50.858;4.384;2022-07-23T00:40:32;18.02;;;14.23;;
22634;SDS011;11484;50.858;4.384;2022-07-23T00:42:59;22.13;;;15.00;;
22634;SDS011;11484;50.858;4.384;2022-07-23T00:45:25;19.95;;;14.90;;
22634;SDS011;11484;50.858;4.384;2022-07-23T00:47:51;20.42;;;15.55;;
22634;SDS011;11484;50.858;4.384;2022-07-23T00:50:16;20.55;;;15.13;;
22634;SDS011;11484;50.858;4.384;2022-07-23T00:52:42;18.48;;;14.18;;
22634;SDS011;11484;50.858;4.384;2022-07-23T00:55:09;20.40;;;15.70;;
22634;SDS011;11484;50.858;4.384;2022-07-23T00:57:36;19.92;;;14.80;;
22634;SDS011;11484;50.858;4.384;2022-07-23T01:00:03;20.42;;;15.63;;
22634;SDS011;11484;50.858;4.384;2022-07-23T01:02:30;19.55;;;15.00;;
22634;SDS011;11484;50.858;4.384;2022-07-23T01:04:56;19.23;;;15.15;;
22634;SDS011;11484;50.858;4.384;2022-07-23T01:07:22;20.02;;;15.02;;
22634;SDS011;11484;50.858;4.384;2022-07-23T01:09:48;20.08;;;16.08;;
22634;SDS011;11484;50.858;4.384;2022-07-23T01:12:16;19.48;;;16.05;;
22634;SDS011;11484;50.858;4.384;2022-07-23T01:14:41;20.80;;;15.75;;
22634;SDS011;11484;50.858;4.384;2022-07-23T01:17:07;21.20;;;15.65;;
22634;SDS011;11484;50.858;4.384;2022-07-23T01:19:32;18.73;;;15.40;;
22634;SDS011;11484;50.858;4.384;2022-07-23T01:21:58;22.50;;;16.45;;
22634;SDS011;11484;50.858;4.384;2022-07-23T01:24:27;23.17;;;16.65;;
22634;SDS011;11484;50.858;4.384;2022-07-23T01:26:53;21.65;;;16.50;;
22634;SDS011;11484;50.858;4.384;2022-07-23T01:29:19;18.85;;;16.40;;
22634;SDS011;11484;50.858;4.384;2022-07-23T01:31:46;20.40;;;16.95;;
22634;SDS011;11484;50.858;4.384;2022-07-23T01:34:12;20.35;;;16.95;;
22634;SDS011;11484;50.858;4.384;2022-07-23T01:36:38;22.05;;;16.67;;
22634;SDS011;11484;50.858;4.384;2022-07-23T01:39:06;20.90;;;15.80;;
22634;SDS011;11484;50.858;4.384;2022-07-23T01:41:33;21.20;;;15.98;;
22634;SDS011;11484;50.858;4.384;2022-07-23T01:43:59;25.52;;;16.83;;
22634;SDS011;11484;50.858;4.384;2022-07-23T01:46:25;23.98;;;16.67;;
22634;SDS011;11484;50.858;4.384;2022-07-23T01:48:51;20.17;;;16.63;;
22634;SDS011;11484;50.858;4.384;2022-07-23T01:51:17;21.05;;;16.55;;
22634;SDS011;11484;50.858;4.384;2022-07-23T01:53:43;20.75;;;15.80;;
22634;SDS011;11484;50.858;4.384;2022-07-23T01:56:08;22.15;;;15.68;;
22634;SDS011;11484;50.858;4.384;2022-07-23T01:58:34;20.27;;;16.08;;
22634;SDS011;11484;50.858;4.384;2022-07-23T02:01:00;22.77;;;15.68;;
22634;SDS011;11484;50.858;4.384;2022-07-23T02:03:26;23.10;;;16.00;;
22634;SDS011;11484;50.858;4.384;2022-07-23T02:05:53;22.80;;;16.70;;
22634;SDS011;11484;50.858;4.384;2022-07-23T02:08:18;20.52;;;15.98;;
22634;SDS011;11484;50.858;4.384;2022-07-23T02:10:44;19.40;;;15.45;;
22634;SDS011;11484;50.858;4.384;2022-07-23T02:13:10;21.98;;;16.77;;
22634;SDS011;11484;50.858;4.384;2022-07-23T02:15:36;22.15;;;16.17;;
22634;SDS011;11484;50.858;4.384;2022-07-23T02:18:02;18.45;;;15.73;;
22634;SDS011;11484;50.858;4.384;2022-07-23T02:20:28;20.52;;;15.95;;
22634;SDS011;11484;50.858;4.384;2022-07-23T02:22:54;21.85;;;16.05;;
22634;SDS011;11484;50.858;4.384;2022-07-23T02:25:19;22.55;;;16.30;;
22634;SDS011;11484;50.858;4.384;2022-07-23T02:27:45;21.75;;;16.98;;
22634;SDS011;11484;50.858;4.384;2022-07-23T02:30:11;19.73;;;15.68;;
22634;SDS011;11484;50.858;4.384;2022-07-23T02:32:37;19.40;;;16.15;;
22634;SDS011;11484;50.858;4.384;2022-07-23T02:35:04;23.98;;;17.40;;
22634;SDS011;11484;50.858;4.384;2022-07-23T02:37:30;20.63;;;16.35;;
22634;SDS011;11484;50.858;4.384;2022-07-23T02:39:56;24.42;;;16.20;;
22634;SDS011;11484;50.858;4.384;2022-07-23T02:42:22;20.90;;;16.30;;
22634;SDS011;11484;50.858;4.384;2022-07-23T02:44:48;20.00;;;16.13;;
22634;SDS011;11484;50.858;4.384;2022-07-23T02:47:15;22.90;;;17.00;;
22634;SDS011;11484;50.858;4.384;2022-07-23T02:49:41;20.90;;;16.38;;
22634;SDS011;11484;50.858;4.384;2022-07-23T02:52:07;22.25;;;16.85;;
22634;SDS011;11484;50.858;4.384;2022-07-23T02:54:35;23.55;;;17.20;;
22634;SDS011;11484;50.858;4.384;2022-07-23T02:57:01;21.23;;;16.85;;
22634;SDS011;11484;50.858;4.384;2022-07-23T02:59:27;20.40;;;17.30;;
22634;SDS011;11484;50.858;4.384;2022-07-23T03:01:52;23.38;;;17.38;;
22634;SDS011;11484;50.858;4.384;2022-07-23T03:04:18;20.10;;;16.17;;
22634;SDS011;11484;50.858;4.384;2022-07-23T03:06:44;22.33;;;16.80;;
22634;SDS011;11484;50.858;4.384;2022-07-23T03:09:10;20.38;;;16.48;;
22634;SDS011;11484;50.858;4.384;2022-07-23T03:11:35;20.33;;;16.40;;
22634;SDS011;11484;50.858;4.384;2022-07-23T03:14:01;23.30;;;16.48;;
22634;SDS011;11484;50.858;4.384;2022-07-23T03:16:26;18.85;;;16.55;;
22634;SDS011;11484;50.858;4.384;2022-07-23T03:18:52;22.55;;;17.92;;
22634;SDS011;11484;50.858;4.384;2022-07-23T03:21:18;21.73;;;16.60;;
22634;SDS011;11484;50.858;4.384;2022-07-23T03:23:43;23.52;;;17.80;;
22634;SDS011;11484;50.858;4.384;2022-07-23T03:26:09;22.83;;;17.00;;
22634;SDS011;11484;50.858;4.384;2022-07-23T03:28:35;22.70;;;17.17;;
22634;SDS011;11484;50.858;4.384;2022-07-23T03:31:00;21.75;;;16.50;;
22634;SDS011;11484;50.858;4.384;2022-07-23T03:33:26;20.33;;;16.73;;
22634;SDS011;11484;50.858;4.384;2022-07-23T03:35:51;22.20;;;18.40;;
22634;SDS011;11484;50.858;4.384;2022-07-23T03:38:17;21.40;;;17.33;;
22634;SDS011;11484;50.858;4.384;2022-07-23T03:40:43;22.05;;;17.65;;
22634;SDS011;11484;50.858;4.384;2022-07-23T03:43:09;23.58;;;17.67;;
22634;SDS011;11484;50.858;4.384;2022-07-23T03:45:34;19.75;;;16.90;;
22634;SDS011;11484;50.858;4.384;2022-07-23T03:48:00;22.27;;;17.15;;
22634;SDS011;11484;50.858;4.384;2022-07-23T03:50:26;19.40;;;16.10;;
22634;SDS011;11484;50.858;4.384;2022-07-23T03:52:51;21.10;;;16.70;;
22634;SDS011;11484;50.858;4.384;2022-07-23T03:55:17;20.50;;;17.65;;
22634;SDS011;11484;50.858;4.384;2022-07-23T03:57:43;21.23;;;17.65;;
22634;SDS011;11484;50.858;4.384;2022-07-23T04:00:09;22.00;;;17.15;;
22634;SDS011;11484;50.858;4.384;2022-07-23T04:02:36;19.42;;;16.23;;
22634;SDS011;11484;50.858;4.384;2022-07-23T04:05:02;22.65;;;17.10;;
22634;SDS011;11484;50.858;4.384;2022-07-23T04:07:29;21.10;;;16.90;;
22634;SDS011;11484;50.858;4.384;2022-07-23T04:09:55;21.17;;;16.80;;
22634;SDS011;11484;50.858;4.384;2022-07-23T04:12:21;25.27;;;17.48;;
22634;SDS011;11484;50.858;4.384;2022-07-23T04:14:47;24.40;;;16.90;;
22634;SDS011;11484;50.858;4.384;2022-07-23T04:17:12;21.20;;;16.05;;
22634;SDS011;11484;50.858;4.384;2022-07-23T04:19:38;22.23;;;16.52;;
22634;SDS011;11484;50.858;4.384;2022-07-23T04:22:09;20.33;;;16.17;;
22634;SDS011;11484;50.858;4.384;2022-07-23T04:24:38;20.75;;;16.65;;
22634;SDS011;11484;50.858;4.384;2022-07-23T04:27:04;19.52;;;15.13;;
22634;SDS011;11484;50.858;4.384;2022-07-23T04:29:30;21.00;;;15.80;;
22634;SDS011;11484;50.858;4.384;2022-07-23T04:31:55;19.38;;;15.52;;
22634;SDS011;11484;50.858;4.384;2022-07-23T04:34:21;17.67;;;15.23;;
22634;SDS011;11484;50.858;4.384;2022-07-23T04:36:47;20.80;;;14.75;;
22634;SDS011;11484;50.858;4.384;2022-07-23T04:39:13;20.08;;;15.00;;
22634;SDS011;11484;50.858;4.384;2022-07-23T04:41:39;17.88;;;14.70;;
22634;SDS011;11484;50.858;4.384;2022-07-23T04:44:04;23.10;;;16.23;;
22634;SDS011;11484;50.858;4.384;2022-07-23T04:46:30;19.23;;;15.30;;
22634;SDS011;11484;50.858;4.384;2022-07-23T04:48:56;17.48;;;14.23;;
22634;SDS011;11484;50.858;4.384;2022-07-23T04:51:22;19.77;;;14.88;;
22634;SDS011;11484;50.858;4.384;2022-07-23T04:53:47;18.20;;;14.48;;
22634;SDS011;11484;50.858;4.384;2022-07-23T04:56:13;17.17;;;14.25;;
22634;SDS011;11484;50.858;4.384;2022-07-23T04:58:39;18.85;;;14.68;;
22634;SDS011;11484;50.858;4.384;2022-07-23T05:01:04;17.48;;;14.13;;
22634;SDS011;11484;50.858;4.384;2022-07-23T05:03:30;20.08;;;14.20;;
22634;SDS011;11484;50.858;4.384;2022-07-23T05:05:56;16.65;;;14.07;;
22634;SDS011;11484;50.858;4.384;2022-07-23T05:08:22;19.52;;;14.63;;
22634;SDS011;11484;50.858;4.384;2022-07-23T05:10:47;22.55;;;13.85;;
22634;SDS011;11484;50.858;4.384;2022-07-23T05:13:14;19.38;;;14.50;;
22634;SDS011;11484;50.858;4.384;2022-07-23T05:15:41;16.65;;;13.40;;
22634;SDS011;11484;50.858;4.384;2022-07-23T05:18:07;18.35;;;13.68;;
22634;SDS011;11484;50.858;4.384;2022-07-23T05:20:32;20.67;;;13.50;;
22634;SDS011;11484;50.858;4.384;2022-07-23T05:22:58;15.30;;;12.82;;
22634;SDS011;11484;50.858;4.384;2022-07-23T05:25:24;17.60;;;13.55;;
22634;SDS011;11484;50.858;4.384;2022-07-23T05:27:50;14.77;;;12.45;;
22634;SDS011;11484;50.858;4.384;2022-07-23T05:30:15;17.83;;;13.40;;
22634;SDS011;11484;50.858;4.384;2022-07-23T05:32:41;15.45;;;13.02;;
22634;SDS011;11484;50.858;4.384;2022-07-23T05:35:07;15.43;;;13.02;;
22634;SDS011;11484;50.858;4.384;2022-07-23T05:37:33;18.50;;;13.88;;
22634;SDS011;11484;50.858;4.384;2022-07-23T05:40:02;16.85;;;13.05;;
22634;SDS011;11484;50.858;4.384;2022-07-23T05:42:31;26.10;;;14.38;;
22634;SDS011;11484;50.858;4.384;2022-07-23T05:44:56;17.23;;;13.68;;
22634;SDS011;11484;50.858;4.384;2022-07-23T05:47:22;18.63;;;13.25;;
22634;SDS011;11484;50.858;4.384;2022-07-23T05:49:48;14.52;;;12.90;;
22634;SDS011;11484;50.858;4.384;2022-07-23T05:52:14;18.10;;;13.10;;
22634;SDS011;11484;50.858;4.384;2022-07-23T05:54:39;18.05;;;14.15;;
22634;SDS011;11484;50.858;4.384;2022-07-23T05:57:05;17.92;;;13.45;;
22634;SDS011;11484;50.858;4.384;2022-07-23T05:59:31;16.30;;;13.00;;
22634;SDS011;11484;50.858;4.384;2022-07-23T06:01:56;25.27;;;14.93;;
22634;SDS011;11484;50.858;4.384;2022-07-23T06:04:22;15.85;;;12.90;;
22634;SDS011;11484;50.858;4.384;2022-07-23T06:06:48;16.52;;;12.45;;
22634;SDS011;11484;50.858;4.384;2022-07-23T06:09:13;17.75;;;12.88;;
22634;SDS011;11484;50.858;4.384;2022-07-23T06:11:39;14.98;;;12.60;;
22634;SDS011;11484;50.858;4.384;2022-07-23T06:14:05;15.93;;;11.85;;
22634;SDS011;11484;50.858;4.384;2022-07-23T06:16:31;16.08;;;12.90;;
22634;SDS011;11484;50.858;4.384;2022-07-23T06:18:57;15.43;;;12.02;;
22634;SDS011;11484;50.858;4.384;2022-07-23T06:21:22;14.50;;;11.63;;
22634;SDS011;11484;50.858;4.384;2022-07-23T06:23:48;13.68;;;11.48;;
22634;SDS011;11484;50.858;4.384;2022-07-23T06:26:14;12.40;;;10.32;;
22634;SDS011;11484;50.858;4.384;2022-07-23T06:28:40;12.82;;;10.40;;
22634;SDS011;11484;50.858;4.384;2022-07-23T06:31:05;12.82;;;9.43;;
22634;SDS011;11484;50.858;4.384;2022-07-23T06:33:31;12.00;;;8.90;;
22634;SDS011;11484;50.858;4.384;2022-07-23T06:35:57;10.45;;;9.30;;
22634;SDS011;11484;50.858;4.384;2022-07-23T06:38:24;9.70;;;8.65;;
22634;SDS011;11484;50.858;4.384;2022-07-23T06:40:50;11.52;;;8.98;;
22634;SDS011;11484;50.858;4.384;2022-07-23T06:43:16;10.95;;;9.20;;
22634;SDS011;11484;50.858;4.384;2022-07-23T06:45:41;11.65;;;9.88;;
22634;SDS011;11484;50.858;4.384;2022-07-23T06:48:07;10.23;;;9.23;;
22634;SDS011;11484;50.858;4.384;2022-07-23T06:50:33;11.10;;;9.15;;
22634;SDS011;11484;50.858;4.384;2022-07-23T06:52:59;10.70;;;8.68;;
22634;SDS011;11484;50.858;4.384;2022-07-23T06:55:25;11.32;;;10.13;;
22634;SDS011;11484;50.858;4.384;2022-07-23T06:57:51;10.73;;;8.52;;
22634;SDS011;11484;50.858;4.384;2022-07-23T07:00:18;12.30;;;9.07;;
22634;SDS011;11484;50.858;4.384;2022-07-23T07:02:44;10.75;;;9.00;;
22634;SDS011;11484;50.858;4.384;2022-07-23T07:05:10;12.40;;;8.85;;
22634;SDS011;11484;50.858;4.384;2022-07-23T07:07:37;9.60;;;8.20;;
22634;SDS011;11484;50.858;4.384;2022-07-23T07:10:03;9.68;;;8.05;;
22634;SDS011;11484;50.858;4.384;2022-07-23T07:12:29;9.88;;;7.80;;
22634;SDS011;11484;50.858;4.384;2022-07-23T07:14:55;10.55;;;8.95;;
22634;SDS011;11484;50.858;4.384;2022-07-23T07:17:21;9.65;;;8.65;;
22634;SDS011;11484;50.858;4.384;2022-07-23T07:19:47;9.43;;;8.50;;
22634;SDS011;11484;50.858;4.384;2022-07-23T07:22:19;10.52;;;8.27;;
22634;SDS011;11484;50.858;4.384;2022-07-23T07:24:45;11.65;;;8.55;;
22634;SDS011;11484;50.858;4.384;2022-07-23T07:27:10;9.07;;;8.07;;
22634;SDS011;11484;50.858;4.384;2022-07-23T07:29:36;10.93;;;8.23;;
22634;SDS011;11484;50.858;4.384;2022-07-23T07:32:03;11.40;;;8.55;;
22634;SDS011;11484;50.858;4.384;2022-07-23T07:34:29;9.73;;;7.90;;
22634;SDS011;11484;50.858;4.384;2022-07-23T07:36:55;9.77;;;7.60;;
22634;SDS011;11484;50.858;4.384;2022-07-23T07:39:20;10.75;;;7.40;;
22634;SDS011;11484;50.858;4.384;2022-07-23T07:41:47;11.00;;;8.20;;
22634;SDS011;11484;50.858;4.384;2022-07-23T07:44:14;10.27;;;7.57;;
22634;SDS011;11484;50.858;4.384;2022-07-23T07:46:39;8.00;;;7.13;;
22634;SDS011;11484;50.858;4.384;2022-07-23T07:49:05;9.05;;;7.47;;
22634;SDS011;11484;50.858;4.384;2022-07-23T07:51:31;8.15;;;6.80;;
22634;SDS011;11484;50.858;4.384;2022-07-23T07:53:57;8.38;;;7.43;;
22634;SDS011;11484;50.858;4.384;2022-07-23T07:56:25;8.90;;;7.25;;
22634;SDS011;11484;50.858;4.384;2022-07-23T07:58:52;7.35;;;6.55;;
22634;SDS011;11484;50.858;4.384;2022-07-23T08:01:19;9.20;;;6.80;;
22634;SDS011;11484;50.858;4.384;2022-07-23T08:03:45;8.48;;;6.47;;
22634;SDS011;11484;50.858;4.384;2022-07-23T08:06:11;8.30;;;6.68;;
22634;SDS011;11484;50.858;4.384;2022-07-23T08:08:37;7.13;;;6.40;;
22634;SDS011;11484;50.858;4.384;2022-07-23T08:11:02;8.07;;;7.15;;
22634;SDS011;11484;50.858;4.384;2022-07-23T08:13:30;7.38;;;6.50;;
22634;SDS011;11484;50.858;4.384;2022-07-23T08:15:56;7.97;;;6.38;;
22634;SDS011;11484;50.858;4.384;2022-07-23T08:18:21;8.02;;;6.82;;
22634;SDS011;11484;50.858;4.384;2022-07-23T08:20:47;7.63;;;6.53;;
22634;SDS011;11484;50.858;4.384;2022-07-23T08:23:13;8.27;;;6.47;;
22634;SDS011;11484;50.858;4.384;2022-07-23T08:25:40;8.88;;;5.93;;
22634;SDS011;11484;50.858;4.384;2022-07-23T08:28:08;8.32;;;6.50;;
22634;SDS011;11484;50.858;4.384;2022-07-23T08:30:35;9.82;;;6.60;;
22634;SDS011;11484;50.858;4.384;2022-07-23T08:33:06;20.30;;;18.20;;
22634;SDS011;11484;50.858;4.384;2022-07-23T08:35:37;7.40;;;5.90;;
22634;SDS011;11484;50.858;4.384;2022-07-23T08:38:05;10.38;;;6.82;;
22634;SDS011;11484;50.858;4.384;2022-07-23T08:40:33;9.50;;;6.95;;
22634;SDS011;11484;50.858;4.384;2022-07-23T08:43:00;10.00;;;7.30;;
22634;SDS011;11484;50.858;4.384;2022-07-23T08:45:37;9.15;;;6.95;;
22634;SDS011;11484;50.858;4.384;2022-07-23T08:48:08;8.07;;;6.75;;
22634;SDS011;11484;50.858;4.384;2022-07-23T08:50:37;9.30;;;6.40;;
22634;SDS011;11484;50.858;4.384;2022-07-23T08:53:07;11.02;;;7.30;;
22634;SDS011;11484;50.858;4.384;2022-07-23T08:55:33;7.28;;;6.57;;
22634;SDS011;11484;50.858;4.384;2022-07-23T08:57:59;8.35;;;6.75;;
22634;SDS011;11484;50.858;4.384;2022-07-23T09:00:25;8.40;;;7.55;;
22634;SDS011;11484;50.858;4.384;2022-07-23T09:02:51;9.25;;;6.60;;
22634;SDS011;11484;50.858;4.384;2022-07-23T09:05:17;10.77;;;6.22;;
22634;SDS011;11484;50.858;4.384;2022-07-23T09:10:30;8.55;;;6.57;;
22634;SDS011;11484;50.858;4.384;2022-07-23T09:13:10;9.30;;;6.75;;
22634;SDS011;11484;50.858;4.384;2022-07-23T09:15:49;9.13;;;6.95;;
22634;SDS011;11484;50.858;4.384;2022-07-23T09:18:15;7.38;;;6.03;;
22634;SDS011;11484;50.858;4.384;2022-07-23T09:20:45;8.48;;;6.97;;
22634;SDS011;11484;50.858;4.384;2022-07-23T09:23:11;7.20;;;5.32;;
22634;SDS011;11484;50.858;4.384;2022-07-23T09:25:37;6.60;;;5.88;;
22634;SDS011;11484;50.858;4.384;2022-07-23T09:28:03;6.95;;;5.85;;
22634;SDS011;11484;50.858;4.384;2022-07-23T09:30:30;7.43;;;6.18;;
22634;SDS011;11484;50.858;4.384;2022-07-23T09:35:53;7.28;;;5.15;;
22634;SDS011;11484;50.858;4.384;2022-07-23T09:38:20;5.05;;;3.92;;
22634;SDS011;11484;50.858;4.384;2022-07-23T09:41:04;6.63;;;4.95;;
22634;SDS011;11484;50.858;4.384;2022-07-23T09:43:38;6.75;;;5.07;;
22634;SDS011;11484;50.858;4.384;2022-07-23T09:46:16;7.85;;;6.80;;
22634;SDS011;11484;50.858;4.384;2022-07-23T09:48:49;5.63;;;4.80;;
22634;SDS011;11484;50.858;4.384;2022-07-23T09:51:17;9.63;;;5.03;;
22634;SDS011;11484;50.858;4.384;2022-07-23T09:54:01;5.72;;;4.25;;
22634;SDS011;11484;50.858;4.384;2022-07-23T09:56:27;6.72;;;4.70;;
22634;SDS011;11484;50.858;4.384;2022-07-23T09:58:53;6.78;;;4.55;;
22634;SDS011;11484;50.858;4.384;2022-07-23T10:01:34;8.98;;;5.03;;
22634;SDS011;11484;50.858;4.384;2022-07-23T10:04:00;5.88;;;4.22;;
22634;SDS011;11484;50.858;4.384;2022-07-23T10:06:26;5.15;;;4.25;;
22634;SDS011;11484;50.858;4.384;2022-07-23T10:08:54;5.72;;;4.13;;
22634;SDS011;11484;50.858;4.384;2022-07-23T10:11:23;6.30;;;4.30;;
22634;SDS011;11484;50.858;4.384;2022-07-23T10:13:50;6.22;;;4.15;;
22634;SDS011;11484;50.858;4.384;2022-07-23T10:16:26;4.97;;;4.40;;
22634;SDS011;11484;50.858;4.384;2022-07-23T10:18:52;6.60;;;4.38;;
22634;SDS011;11484;50.858;4.384;2022-07-23T10:21:23;8.25;;;4.15;;
22634;SDS011;11484;50.858;4.384;2022-07-23T10:24:16;5.95;;;3.80;;
22634;SDS011;11484;50.858;4.384;2022-07-23T10:32:47;6.85;;;3.80;;
22634;SDS011;11484;50.858;4.384;2022-07-23T10:35:37;4.68;;;3.78;;
22634;SDS011;11484;50.858;4.384;2022-07-23T10:38:27;7.80;;;4.35;;
22634;SDS011;11484;50.858;4.384;2022-07-23T10:41:06;7.50;;;4.80;;
22634;SDS011;11484;50.858;4.384;2022-07-23T10:43:33;6.47;;;4.65;;
22634;SDS011;11484;50.858;4.384;2022-07-23T10:57:25;7.35;;;4.38;;
22634;SDS011;11484;50.858;4.384;2022-07-23T11:02:30;8.50;;;4.70;;
22634;SDS011;11484;50.858;4.384;2022-07-23T11:05:03;6.30;;;4.50;;
22634;SDS011;11484;50.858;4.384;2022-07-23T11:08:25;7.60;;;5.05;;
22634;SDS011;11484;50.858;4.384;2022-07-23T11:10:38;7.95;;;5.00;;
22634;SDS011;11484;50.858;4.384;2022-07-23T11:18:52;7.05;;;5.47;;
22634;SDS011;11484;50.858;4.384;2022-07-23T11:31:54;5.72;;;4.78;;
22634;SDS011;11484;50.858;4.384;2022-07-23T11:37:00;6.20;;;4.43;;
22634;SDS011;11484;50.858;4.384;2022-07-23T11:39:28;7.35;;;4.10;;
22634;SDS011;11484;50.858;4.384;2022-07-23T11:41:55;4.78;;;3.78;;
22634;SDS011;11484;50.858;4.384;2022-07-23T11:44:25;7.07;;;3.47;;
22634;SDS011;11484;50.858;4.384;2022-07-23T11:46:56;4.90;;;4.00;;
22634;SDS011;11484;50.858;4.384;2022-07-23T11:49:25;6.28;;;4.13;;
22634;SDS011;11484;50.858;4.384;2022-07-23T11:52:08;7.93;;;4.32;;
22634;SDS011;11484;50.858;4.384;2022-07-23T11:54:37;5.60;;;4.18;;
22634;SDS011;11484;50.858;4.384;2022-07-23T11:57:18;6.25;;;4.63;;
22634;SDS011;11484;50.858;4.384;2022-07-23T11:59:47;16.05;;;12.82;;
22634;SDS011;11484;50.858;4.384;2022-07-23T12:02:16;8.15;;;6.05;;
22634;SDS011;11484;50.858;4.384;2022-07-23T12:04:45;6.75;;;4.30;;
22634;SDS011;11484;50.858;4.384;2022-07-23T12:07:23;9.70;;;5.47;;
22634;SDS011;11484;50.858;4.384;2022-07-23T12:09:54;8.60;;;6.68;;
22634;SDS011;11484;50.858;4.384;2022-07-23T12:12:21;22.52;;;20.10;;
22634;SDS011;11484;50.858;4.384;2022-07-23T12:14:57;8.57;;;5.80;;
22634;SDS011;11484;50.858;4.384;2022-07-23T12:17:31;8.35;;;5.28;;
22634;SDS011;11484;50.858;4.384;2022-07-23T12:19:59;7.70;;;5.47;;
22634;SDS011;11484;50.858;4.384;2022-07-23T12:22:32;10.35;;;6.65;;
22634;SDS011;11484;50.858;4.384;2022-07-23T12:25:01;8.30;;;6.25;;
22634;SDS011;11484;50.858;4.384;2022-07-23T12:27:29;7.80;;;5.60;;
22634;SDS011;11484;50.858;4.384;2022-07-23T12:29:55;6.70;;;5.65;;
22634;SDS011;11484;50.858;4.384;2022-07-23T12:32:25;10.40;;;6.00;;
22634;SDS011;11484;50.858;4.384;2022-07-23T12:35:06;8.07;;;5.32;;
22634;SDS011;11484;50.858;4.384;2022-07-23T12:37:35;8.18;;;6.00;;
22634;SDS011;11484;50.858;4.384;2022-07-23T12:40:22;7.80;;;5.30;;
22634;SDS011;11484;50.858;4.384;2022-07-23T12:42:52;7.55;;;5.00;;
22634;SDS011;11484;50.858;4.384;2022-07-23T12:45:29;7.78;;;5.20;;
22634;SDS011;11484;50.858;4.384;2022-07-23T12:48:16;7.28;;;5.32;;
22634;SDS011;11484;50.858;4.384;2022-07-23T12:50:43;8.75;;;5.25;;
22634;SDS011;11484;50.858;4.384;2022-07-23T12:53:16;10.88;;;6.15;;
22634;SDS011;11484;50.858;4.384;2022-07-23T12:56:11;9.57;;;6.40;;
22634;SDS011;11484;50.858;4.384;2022-07-23T13:01:10;10.05;;;6.95;;
22634;SDS011;11484;50.858;4.384;2022-07-23T13:06:30;7.63;;;6.60;;
22634;SDS011;11484;50.858;4.384;2022-07-23T13:08:57;14.15;;;7.90;;
22634;SDS011;11484;50.858;4.384;2022-07-23T13:11:23;8.88;;;6.78;;
22634;SDS011;11484;50.858;4.384;2022-07-23T13:13:49;8.75;;;6.22;;
22634;SDS011;11484;50.858;4.384;2022-07-23T13:16:15;7.85;;;6.43;;
22634;SDS011;11484;50.858;4.384;2022-07-23T13:18:40;10.68;;;7.30;;
22634;SDS011;11484;50.858;4.384;2022-07-23T13:21:06;7.78;;;5.35;;
22634;SDS011;11484;50.858;4.384;2022-07-23T13:23:32;6.35;;;5.45;;
22634;SDS011;11484;50.858;4.384;2022-07-23T13:25:58;7.65;;;5.70;;
22634;SDS011;11484;50.858;4.384;2022-07-23T13:28:25;6.65;;;4.80;;
22634;SDS011;11484;50.858;4.384;2022-07-23T13:30:51;8.13;;;5.43;;
22634;SDS011;11484;50.858;4.384;2022-07-23T13:33:18;5.78;;;4.47;;
22634;SDS011;11484;50.858;4.384;2022-07-23T13:35:46;6.78;;;4.50;;
22634;SDS011;11484;50.858;4.384;2022-07-23T13:38:12;5.65;;;4.40;;
22634;SDS011;11484;50.858;4.384;2022-07-23T13:40:39;8.20;;;4.65;;
22634;SDS011;11484;50.858;4.384;2022-07-23T13:43:10;6.18;;;4.25;;
22634;SDS011;11484;50.858;4.384;2022-07-23T13:45:37;10.45;;;4.80;;
22634;SDS011;11484;50.858;4.384;2022-07-23T13:48:04;6.97;;;4.55;;
22634;SDS011;11484;50.858;4.384;2022-07-23T13:50:32;6.95;;;4.32;;
22634;SDS011;11484;50.858;4.384;2022-07-23T13:53:00;4.60;;;4.03;;
22634;SDS011;11484;50.858;4.384;2022-07-23T13:55:27;5.75;;;4.03;;
22634;SDS011;11484;50.858;4.384;2022-07-23T13:57:53;5.20;;;4.70;;
22634;SDS011;11484;50.858;4.384;2022-07-23T14:00:19;6.90;;;4.72;;
22634;SDS011;11484;50.858;4.384;2022-07-23T14:02:44;13.60;;;9.13;;
22634;SDS011;11484;50.858;4.384;2022-07-23T14:05:10;7.65;;;4.43;;
22634;SDS011;11484;50.858;4.384;2022-07-23T14:07:38;6.85;;;4.18;;
22634;SDS011;11484;50.858;4.384;2022-07-23T14:10:05;4.60;;;3.83;;
22634;SDS011;11484;50.858;4.384;2022-07-23T14:12:32;6.78;;;4.57;;
22634;SDS011;11484;50.858;4.384;2022-07-23T14:14:57;5.93;;;3.97;;
22634;SDS011;11484;50.858;4.384;2022-07-23T14:17:23;6.38;;;3.90;;
22634;SDS011;11484;50.858;4.384;2022-07-23T14:19:50;6.22;;;4.10;;
22634;SDS011;11484;50.858;4.384;2022-07-23T14:22:16;5.85;;;3.85;;
22634;SDS011;11484;50.858;4.384;2022-07-23T14:24:42;4.78;;;4.03;;
22634;SDS011;11484;50.858;4.384;2022-07-23T14:27:08;5.93;;;3.60;;
22634;SDS011;11484;50.858;4.384;2022-07-23T14:29:34;5.90;;;3.83;;
22634;SDS011;11484;50.858;4.384;2022-07-23T14:32:01;9.48;;;4.63;;
22634;SDS011;11484;50.858;4.384;2022-07-23T14:34:27;6.38;;;4.25;;
22634;SDS011;11484;50.858;4.384;2022-07-23T14:36:53;7.53;;;3.80;;
22634;SDS011;11484;50.858;4.384;2022-07-23T14:39:19;10.18;;;8.55;;
22634;SDS011;11484;50.858;4.384;2022-07-23T14:41:45;6.63;;;4.68;;
22634;SDS011;11484;50.858;4.384;2022-07-23T14:44:11;8.13;;;4.57;;
22634;SDS011;11484;50.858;4.384;2022-07-23T14:46:37;6.72;;;4.18;;
22634;SDS011;11484;50.858;4.384;2022-07-23T14:49:03;6.60;;;4.90;;
22634;SDS011;11484;50.858;4.384;2022-07-23T14:51:29;5.70;;;4.20;;
22634;SDS011;11484;50.858;4.384;2022-07-23T14:53:54;4.88;;;4.20;;
22634;SDS011;11484;50.858;4.384;2022-07-23T14:56:20;8.40;;;4.50;;
22634;SDS011;11484;50.858;4.384;2022-07-23T14:58:46;8.25;;;5.70;;
22634;SDS011;11484;50.858;4.384;2022-07-23T15:01:13;6.05;;;4.38;;
22634;SDS011;11484;50.858;4.384;2022-07-23T15:03:39;10.82;;;4.57;;
22634;SDS011;11484;50.858;4.384;2022-07-23T15:06:05;5.95;;;4.60;;
22634;SDS011;11484;50.858;4.384;2022-07-23T15:08:31;4.60;;;4.07;;
22634;SDS011;11484;50.858;4.384;2022-07-23T15:10:56;8.38;;;4.80;;
22634;SDS011;11484;50.858;4.384;2022-07-23T15:13:22;5.43;;;4.40;;
22634;SDS011;11484;50.858;4.384;2022-07-23T15:15:48;6.00;;;4.20;;
22634;SDS011;11484;50.858;4.384;2022-07-23T15:18:13;5.88;;;4.68;;
22634;SDS011;11484;50.858;4.384;2022-07-23T15:20:40;5.88;;;4.00;;
22634;SDS011;11484;50.858;4.384;2022-07-23T15:23:06;6.78;;;4.65;;
22634;SDS011;11484;50.858;4.384;2022-07-23T15:25:32;8.65;;;4.95;;